Dois Irmaos, Brazil
Current Conditions -  °F | °C
As of 10:00 AM on Monday 20 Oct 2014 (Local Time) from SBCO Reporting Station
Clear Clear  
Wind Chill: 70°   Ceiling: Unl
Heat Index: 70°   Visibility: 6mi
Dew Point: 52°   Wind: 5mph
Humidity: 53%   Direction: 230°SW
Pressure: 30.12"   Gusts: NA
Location:  29.58°S, 51.09°W
Report Text: SBCO 201300Z 23004KT CAVOK 21/11 Q1020
Loading
Personal Weather Stations






























Interactive Weather Map
Tropical Storm Tracking
New forecast layout! Learn more

10-Day Weather Forecast

Advertisements
Track Severe Weather on mobile